Time;durP1;ratioP1;P1;durP2;ratioP2;P2;SDS_P1;SDS_P2;PMS_P1;PMS_P2;Temp;Humidity;BMP_temperature;BMP_pressure;BME280_temperature;BME280_humidity;BME280_pressure;Samples;Min_cycle;Max_cycle;Signal;HPM_P1;HPM_P2
2023/01/16 00:00:21;;;;;;;121.57;116.57;;;4.60;96.80;;;;;;5036100;28;20029;-80
2023/01/16 00:02:46;;;;;;;122.55;117.55;;;4.60;96.80;;;;;;5052755;28;20087;-80
2023/01/16 00:05:12;;;;;;;123.85;118.78;;;4.60;96.90;;;;;;5035349;28;20532;-79
2023/01/16 00:07:38;;;;;;;120.50;115.50;;;4.70;96.90;;;;;;5036278;28;20033;-80
2023/01/16 00:10:05;;;;;;;119.47;114.60;;;4.70;96.90;;;;;;5036259;28;20583;-80
2023/01/16 00:12:30;;;;;;;121.50;116.55;;;4.70;96.90;;;;;;5053033;28;20307;-80
2023/01/16 00:14:56;;;;;;;122.13;117.13;;;4.70;96.80;;;;;;5035891;28;20025;-80
2023/01/16 00:17:22;;;;;;;122.30;117.40;;;4.70;96.80;;;;;;5052736;28;20029;-80
2023/01/16 00:19:47;;;;;;;123.80;118.80;;;4.80;96.80;;;;;;5036081;28;20032;-81
2023/01/16 00:22:13;;;;;;;118.25;113.55;;;4.80;96.80;;;;;;5053812;28;20401;-80
2023/01/16 00:24:39;;;;;;;118.00;113.28;;;4.80;96.90;;;;;;5053226;28;20049;-80
2023/01/16 00:27:05;;;;;;;122.55;117.65;;;4.80;96.90;;;;;;5052982;28;20045;-80
2023/01/16 00:29:31;;;;;;;120.82;115.95;;;4.80;97.00;;;;;;5035212;28;20033;-80
2023/01/16 00:31:56;;;;;;;121.70;116.80;;;4.90;96.90;;;;;;5052174;28;20486;-80
2023/01/16 00:34:23;;;;;;;122.68;117.78;;;4.90;96.90;;;;;;5051704;28;20040;-80
2023/01/16 00:36:48;;;;;;;;;;;4.80;96.70;;;;;;5053943;28;20392;-80
2023/01/16 00:39:14;;;;;;;123.53;118.53;;;4.80;96.70;;;;;;5052004;28;19909;-80
2023/01/16 00:41:40;;;;;;;124.30;119.30;;;4.70;96.60;;;;;;5036656;28;20040;-80
2023/01/16 00:44:05;;;;;;;120.50;115.60;;;4.60;96.70;;;;;;5057906;28;20086;-80
2023/01/16 00:46:31;;;;;;;118.60;113.80;;;4.60;96.70;;;;;;5032700;28;20029;-80
2023/01/16 00:48:57;;;;;;;120.03;115.22;;;4.60;96.80;;;;;;5049694;28;20108;-80
2023/01/16 00:51:23;;;;;;;118.82;114.05;;;4.60;96.80;;;;;;5049654;28;20033;-80
2023/01/16 00:53:48;;;;;;;122.07;117.18;;;4.60;96.90;;;;;;5050458;28;20390;-80
2023/01/16 00:56:14;;;;;;;121.72;116.82;;;4.70;97.00;;;;;;5049795;28;20025;-80
2023/01/16 00:58:40;;;;;;;120.50;115.70;;;4.70;96.90;;;;;;5049473;28;20045;-80
2023/01/16 01:01:06;;;;;;;120.38;115.57;;;4.60;96.80;;;;;;5050720;28;20394;-80
2023/01/16 01:03:32;;;;;;;120.43;115.55;;;4.60;96.80;;;;;;5049905;28;20037;-80
2023/01/16 01:05:58;;;;;;;121.32;116.43;;;4.60;96.80;;;;;;5032582;28;20041;-81
2023/01/16 01:08:24;;;;;;;118.13;113.32;;;4.60;96.70;;;;;;5049646;28;20028;-80
2023/01/16 01:10:49;;;;;;;122.40;117.40;;;4.60;96.80;;;;;;5050384;28;20452;-81
2023/01/16 01:13:15;;;;;;;121.47;116.47;;;4.50;96.80;;;;;;5049557;28;20047;-81
2023/01/16 01:15:41;;;;;;;121.05;116.15;;;4.50;96.80;;;;;;5048779;28;20092;-80
2023/01/16 01:18:07;;;;;;;119.45;114.55;;;4.50;96.80;;;;;;5051920;28;20025;-80
2023/01/16 01:20:33;;;;;;;119.63;114.72;;;4.50;96.90;;;;;;5051141;28;20116;-81
2023/01/16 01:22:59;;;;;;;116.78;112.07;;;4.60;96.90;;;;;;5050287;28;20033;-81
2023/01/16 01:25:25;;;;;;;119.63;114.82;;;4.60;96.90;;;;;;5050171;28;20401;-80
2023/01/16 01:27:50;;;;;;;115.80;111.10;;;4.60;97.00;;;;;;5050311;28;20024;-80
2023/01/16 01:30:17;;;;;;;121.43;116.53;;;4.60;97.00;;;;;;5052536;28;20033;-81
2023/01/16 01:32:42;;;;;;;;;;;4.70;97.00;;;;;;5051704;28;20032;-80
2023/01/16 01:35:08;;;;;;;118.45;113.68;;;4.70;97.00;;;;;;5052538;28;20262;-80
2023/01/16 01:37:35;;;;;;;117.80;113.10;;;4.70;97.00;;;;;;5036118;28;20036;-80
2023/01/16 01:40:01;;;;;;;119.47;114.72;;;4.70;96.90;;;;;;5036285;28;20551;-80
2023/01/16 01:42:42;;;;;;;114.65;110.05;;;4.80;97.00;;;;;;5050853;28;20063;-81
2023/01/16 01:45:17;;;;;;;114.10;109.57;;;4.80;97.00;;;;;;5051390;28;20040;-80
2023/01/16 01:48:05;;;;;;;110.65;106.25;;;4.80;97.00;;;;;;5053455;28;20385;-81
2023/01/16 01:50:31;;;;;;;110.93;106.53;;;4.80;97.00;;;;;;5052281;28;20044;-80
2023/01/16 01:53:00;;;;;;;114.05;109.55;;;4.80;96.90;;;;;;5053995;28;20472;-81
2023/01/16 01:55:26;;;;;;;112.05;107.65;;;4.80;96.90;;;;;;5054527;28;20056;-80
2023/01/16 01:57:57;;;;;;;116.30;111.70;;;4.80;96.90;;;;;;5052323;28;20079;-81
2023/01/16 02:00:25;;;;;;;108.40;104.10;;;4.80;97.00;;;;;;5053642;28;20029;-80
2023/01/16 02:03:25;;;;;;;104.93;100.82;;;4.70;96.90;;;;;;5054523;28;20025;-80
2023/01/16 02:05:55;;;;;;;108.05;103.85;;;4.70;97.00;;;;;;5052528;28;20037;-80
2023/01/16 02:08:26;;;;;;;109.18;104.90;;;4.70;97.20;;;;;;5053762;28;20021;-80
2023/01/16 02:10:59;;;;;;;106.63;102.43;;;4.70;97.20;;;;;;5055550;28;20082;-80
2023/01/16 02:13:25;;;;;;;103.32;99.32;;;4.70;97.20;;;;;;5053928;28;20371;-79
2023/01/16 02:21:35;;;;;;;103.82;99.82;;;4.60;97.20;;;;;;5048886;28;20542;-80
2023/01/16 02:24:39;;;;;;;99.32;95.53;;;4.60;97.30;;;;;;5049523;28;20025;-80
2023/01/16 02:27:10;;;;;;;102.72;98.72;;;4.50;97.30;;;;;;5054061;28;20461;-80
2023/01/16 02:30:23;;;;;;;101.47;97.47;;;4.50;97.30;;;;;;5059076;28;20512;-80
2023/01/16 02:33:13;;;;;;;102.95;98.95;;;4.50;97.40;;;;;;5057406;28;20053;-80
2023/01/16 02:35:57;;;;;;;103.22;99.22;;;4.50;97.40;;;;;;5058092;28;20017;-79
2023/01/16 02:39:03;;;;;;;100.22;96.32;;;4.60;97.30;;;;;;5056599;28;20059;-79
2023/01/16 02:41:31;;;;;;;100.72;96.82;;;4.60;97.30;;;;;;5049773;28;20036;-75
2023/01/16 02:44:07;;;;;;;99.18;95.35;;;4.50;97.30;;;;;;5047819;28;20461;-76
2023/01/16 02:46:53;;;;;;;99.20;95.33;;;4.50;97.40;;;;;;5046646;28;20124;-76
2023/01/16 02:49:29;;;;;;;97.95;94.13;;;4.60;97.40;;;;;;5046803;28;20260;-75
2023/01/16 02:52:20;;;;;;;99.55;95.65;;;4.60;97.30;;;;;;5046435;28;20197;-76
2023/01/16 02:54:54;;;;;;;98.93;95.03;;;4.70;97.20;;;;;;5046441;28;20391;-76
2023/01/16 02:57:23;;;;;;;99.22;95.35;;;4.70;97.20;;;;;;5046140;28;20141;-76
2023/01/16 02:59:50;;;;;;;98.93;95.03;;;4.70;97.10;;;;;;5047719;28;20104;-75
2023/01/16 03:02:15;;;;;;;97.38;93.57;;;4.80;97.10;;;;;;5046465;28;20388;-75
2023/01/16 03:04:49;;;;;;;96.97;93.20;;;4.80;97.10;;;;;;5046702;28;20033;-75
2023/01/16 03:07:34;;;;;;;91.70;88.13;;;4.70;97.10;;;;;;5047598;28;20071;-75
2023/01/16 03:10:00;;;;;;;90.75;87.25;;;4.70;97.10;;;;;;5046366;28;20025;-75
2023/01/16 03:12:31;;;;;;;91.35;87.85;;;4.70;97.10;;;;;;5046163;28;20029;-75
2023/01/16 03:15:26;;;;;;;76.70;73.80;;;4.60;97.00;;;;;;5046093;28;20033;-75
2023/01/16 03:18:35;;;;;;;81.32;78.22;;;4.40;97.10;;;;;;5050759;28;20539;-75
2023/01/16 03:21:31;;;;;;;76.75;73.85;;;4.40;97.30;;;;;;5054089;28;20052;-75
2023/01/16 03:24:13;;;;;;;74.97;72.15;;;4.40;97.40;;;;;;5052965;28;20033;-75
2023/01/16 03:26:54;;;;;;;77.53;74.60;;;4.40;97.40;;;;;;5052808;28;20695;-75
2023/01/16 03:29:53;;;;;;;73.85;71.05;;;4.40;97.20;;;;;;5053007;28;20032;-76
2023/01/16 03:32:33;;;;;;;79.93;76.93;;;4.30;97.10;;;;;;5052937;28;20045;-76
2023/01/16 03:35:22;;;;;;;76.50;73.60;;;4.20;97.10;;;;;;5054050;28;20059;-75
2023/01/16 03:37:55;;;;;;;79.88;76.88;;;4.10;97.10;;;;;;5052609;28;20112;-76
2023/01/16 03:40:31;;;;;;;81.85;78.75;;;4.00;97.10;;;;;;5052643;28;20041;-75
2023/01/16 03:43:04;;;;;;;81.70;78.60;;;3.90;97.10;;;;;;5052970;28;20087;-75
2023/01/16 03:45:49;;;;;;;79.85;76.85;;;3.80;97.10;;;;;;5052753;28;20031;-75
2023/01/16 03:48:36;;;;;;;78.15;75.15;;;3.70;97.00;;;;;;5054211;28;20090;-76
2023/01/16 03:51:04;;;;;;;;;;;3.70;97.10;;;;;;5053378;28;20032;-75
2023/01/16 03:53:52;;;;;;;85.53;82.22;;;3.60;97.00;;;;;;5052823;28;20418;-76
2023/01/16 03:56:27;;;;;;;88.32;84.93;;;3.50;96.90;;;;;;5041580;28;20466;-76
2023/01/16 03:58:54;;;;;;;91.18;87.68;;;3.50;96.90;;;;;;5053869;28;20044;-75
2023/01/16 04:02:03;;;;;;;93.15;89.60;;;3.50;96.90;;;;;;5054022;28;20051;-75
2023/01/16 04:04:45;;;;;;;;;;;3.40;96.90;;;;;;5051823;28;20040;-75
2023/01/16 04:07:20;;;;;;;94.88;91.28;;;3.40;96.90;;;;;;5053662;28;19921;-75
2023/01/16 04:10:11;;;;;;;85.80;82.50;;;3.40;96.80;;;;;;5052481;28;20170;-76
2023/01/16 04:12:43;;;;;;;87.07;83.78;;;3.30;96.80;;;;;;5053264;28;20033;-75
2023/01/16 04:15:09;;;;;;;88.15;84.75;;;3.20;96.90;;;;;;5053701;28;20125;-76
2023/01/16 04:17:38;;;;;;;87.85;84.55;;;3.20;96.90;;;;;;5035983;28;20025;-75
2023/01/16 04:20:06;;;;;;;87.22;83.93;;;3.20;97.00;;;;;;5052249;28;20112;-76
2023/01/16 04:22:32;;;;;;;85.32;82.10;;;3.20;97.10;;;;;;5052428;28;20024;-76
2023/01/16 04:25:00;;;;;;;83.15;79.95;;;3.30;97.40;;;;;;5052482;28;20374;-75
2023/01/16 04:27:26;;;;;;;82.07;78.97;;;3.30;97.20;;;;;;5053596;28;20038;-75
2023/01/16 04:29:51;;;;;;;83.72;80.53;;;3.40;97.10;;;;;;5031578;28;20036;-76
2023/01/16 04:32:17;;;;;;;82.35;79.18;;;3.40;97.10;;;;;;5049063;28;20033;-76
2023/01/16 04:34:43;;;;;;;82.13;79.03;;;3.30;96.90;;;;;;5049050;28;20136;-75
2023/01/16 04:37:13;;;;;;;81.28;78.25;;;3.30;96.90;;;;;;5032383;28;20405;-75
2023/01/16 04:39:40;;;;;;;79.05;76.05;;;3.30;96.90;;;;;;5050362;28;20021;-76
2023/01/16 04:42:06;;;;;;;80.90;77.90;;;3.20;96.90;;;;;;5032618;28;20402;-75
2023/01/16 04:44:32;;;;;;;80.38;77.38;;;3.20;96.90;;;;;;5049109;28;20082;-75
2023/01/16 04:46:57;;;;;;;80.00;77.00;;;3.10;96.90;;;;;;5032189;28;20401;-75
2023/01/16 04:49:23;;;;;;;81.13;78.13;;;3.10;96.90;;;;;;5048889;28;20059;-75
2023/01/16 04:51:49;;;;;;;79.47;76.47;;;3.00;96.90;;;;;;5048637;28;20132;-75
2023/01/16 04:54:16;;;;;;;80.25;77.25;;;3.00;96.90;;;;;;5048672;28;20025;-76
2023/01/16 04:56:43;;;;;;;84.97;81.78;;;3.00;96.90;;;;;;5049780;28;20053;-75
2023/01/16 04:59:10;;;;;;;79.63;76.63;;;2.90;96.90;;;;;;5048350;28;20059;-75
2023/01/16 05:01:37;;;;;;;82.68;79.57;;;2.90;96.90;;;;;;5048520;28;20052;-75
2023/01/16 05:04:04;;;;;;;81.07;77.97;;;2.90;96.90;;;;;;5048582;28;20031;-76
2023/01/16 05:06:30;;;;;;;80.22;77.22;;;2.80;96.90;;;;;;5048312;28;20094;-76
2023/01/16 05:08:55;;;;;;;79.70;76.70;;;2.80;96.90;;;;;;5032000;28;20456;-76
2023/01/16 05:11:21;;;;;;;79.85;76.85;;;2.70;96.90;;;;;;5048400;28;20072;-75
2023/01/16 05:13:47;;;;;;;81.10;78.10;;;2.70;96.90;;;;;;5049675;28;20151;-75
2023/01/16 05:16:13;;;;;;;78.97;75.97;;;2.70;96.90;;;;;;5048380;28;20485;-76
2023/01/16 05:18:38;;;;;;;82.75;79.65;;;2.60;96.90;;;;;;5032051;28;20050;-75
2023/01/16 05:21:04;;;;;;;85.55;82.35;;;2.60;96.90;;;;;;5049410;28;20037;-76
2023/01/16 05:23:33;;;;;;;81.50;78.45;;;2.60;96.80;;;;;;5031819;28;20397;-75
2023/01/16 05:25:59;;;;;;;87.82;84.53;;;2.60;96.80;;;;;;5048079;28;20064;-75
2023/01/16 05:28:25;;;;;;;85.28;82.07;;;2.60;96.80;;;;;;5048236;28;20052;-75
2023/01/16 05:30:51;;;;;;;85.35;82.07;;;2.60;96.70;;;;;;5047977;28;20491;-76
2023/01/16 05:33:16;;;;;;;84.00;80.80;;;2.60;96.70;;;;;;5031461;28;20033;-76
2023/01/16 05:35:44;;;;;;;87.80;84.43;;;2.50;96.70;;;;;;5049247;28;20025;-75
2023/01/16 05:38:09;;;;;;;86.18;82.88;;;2.50;96.60;;;;;;5031716;28;20047;-75
2023/01/16 05:40:35;;;;;;;85.25;82.00;;;2.50;96.60;;;;;;5047452;28;20123;-75
2023/01/16 05:43:01;;;;;;;85.80;82.50;;;2.50;96.60;;;;;;5031301;28;20040;-75
2023/01/16 05:45:26;;;;;;;85.43;82.18;;;2.50;96.60;;;;;;5047723;28;20025;-75
2023/01/16 05:47:52;;;;;;;87.20;83.90;;;2.40;96.60;;;;;;5031026;28;20132;-75
2023/01/16 05:50:18;;;;;;;87.63;84.22;;;2.40;96.60;;;;;;5047387;28;20039;-75
2023/01/16 05:52:43;;;;;;;86.95;83.65;;;2.40;96.80;;;;;;5048990;28;20029;-75
2023/01/16 05:55:09;;;;;;;83.60;80.40;;;2.40;96.50;;;;;;5047758;28;20104;-75
2023/01/16 05:57:35;;;;;;;87.10;83.78;;;2.30;96.50;;;;;;5048836;28;20041;-75
2023/01/16 06:00:01;;;;;;;90.90;87.40;;;2.30;96.50;;;;;;5047296;28;20032;-75
2023/01/16 06:02:26;;;;;;;92.30;88.80;;;2.30;96.50;;;;;;5047656;28;20120;-75
2023/01/16 06:04:52;;;;;;;86.65;83.35;;;2.30;96.50;;;;;;5047519;28;20067;-75
2023/01/16 06:07:18;;;;;;;87.80;84.40;;;2.30;96.50;;;;;;5047206;28;20040;-75
2023/01/16 06:09:44;;;;;;;85.03;81.75;;;2.20;96.50;;;;;;5048653;28;20025;-75
2023/01/16 06:12:15;;;;;;;87.88;84.47;;;2.20;96.50;;;;;;5047202;28;20068;-75
2023/01/16 06:14:41;;;;;;;89.32;85.90;;;2.20;96.50;;;;;;5047110;28;20017;-75
2023/01/16 06:17:07;;;;;;;87.93;84.55;;;2.10;96.50;;;;;;5030578;28;20120;-76
2023/01/16 06:19:33;;;;;;;87.25;83.85;;;2.10;96.50;;;;;;5047214;28;20353;-75
2023/01/16 06:21:58;;;;;;;87.18;83.78;;;2.10;96.50;;;;;;5047203;28;20063;-70
2023/01/16 06:24:24;;;;;;;86.10;82.80;;;2.00;96.60;;;;;;5030425;28;20033;-76
2023/01/16 06:26:50;;;;;;;87.70;84.32;;;2.00;96.40;;;;;;5030193;28;20148;-76
2023/01/16 06:29:15;;;;;;;89.40;86.00;;;2.00;96.40;;;;;;5048165;28;20033;-76
2023/01/16 06:31:41;;;;;;;87.10;83.70;;;1.90;96.40;;;;;;5046767;28;20041;-75
2023/01/16 06:34:07;;;;;;;88.32;84.93;;;1.90;96.40;;;;;;5030325;28;20440;-75
2023/01/16 06:36:33;;;;;;;86.32;83.03;;;1.90;96.40;;;;;;5046523;28;20428;-75
2023/01/16 06:38:58;;;;;;;90.65;87.15;;;1.80;96.40;;;;;;5046617;28;20025;-76
2023/01/16 06:41:24;;;;;;;91.03;87.53;;;1.80;96.40;;;;;;5030142;28;20029;-76
2023/01/16 06:43:50;;;;;;;89.68;86.28;;;1.80;96.40;;;;;;5030059;28;20039;-75
2023/01/16 06:46:15;;;;;;;87.65;84.25;;;1.70;96.40;;;;;;5046604;28;20032;-75
2023/01/16 06:48:44;;;;;;;90.35;86.85;;;1.70;96.40;;;;;;5030034;28;20037;-75
2023/01/16 06:51:10;;;;;;;90.82;87.32;;;1.70;96.40;;;;;;5029302;28;20119;-76
2023/01/16 06:53:37;;;;;;;90.53;87.03;;;1.70;96.40;;;;;;5029777;28;20113;-75
2023/01/16 06:56:02;;;;;;;86.47;83.07;;;1.60;96.40;;;;;;5050539;28;20050;-75
2023/01/16 06:58:28;;;;;;;88.78;85.38;;;1.60;96.40;;;;;;5046018;28;20091;-76
2023/01/16 07:00:55;;;;;;;91.05;87.55;;;1.60;96.40;;;;;;5029779;28;20035;-75
2023/01/16 07:03:21;;;;;;;85.20;81.90;;;1.50;96.50;;;;;;5029640;28;20025;-75
2023/01/16 07:05:47;;;;;;;87.78;84.40;;;1.50;96.40;;;;;;5046457;28;20079;-75
2023/01/16 07:08:13;;;;;;;87.95;84.57;;;1.50;96.30;;;;;;5046133;28;20095;-75
2023/01/16 07:10:39;;;;;;;89.40;86.00;;;1.40;96.30;;;;;;5046311;28;20031;-75
2023/01/16 07:13:05;;;;;;;89.28;85.88;;;1.40;96.30;;;;;;5046279;28;20029;-75
2023/01/16 07:24:15;;;;;;;84.65;81.45;;;1.30;96.30;;;;;;5047802;28;20036;-76
2023/01/16 07:26:44;;;;;;;87.22;83.88;;;1.30;96.30;;;;;;5047399;28;20021;-76
2023/01/16 07:29:10;;;;;;;86.80;83.50;;;1.30;96.30;;;;;;5052833;28;20032;-80
2023/01/16 07:31:36;;;;;;;88.65;85.25;;;1.30;96.30;;;;;;5055575;28;20029;-79
2023/01/16 07:34:02;;;;;;;89.38;85.97;;;1.20;96.30;;;;;;5057932;28;20029;-79
2023/01/16 07:36:27;;;;;;;88.13;84.72;;;1.20;96.30;;;;;;5057257;28;20033;-79
2023/01/16 07:38:53;;;;;;;83.95;80.75;;;1.20;96.30;;;;;;5056389;28;20036;-80
2023/01/16 07:41:19;;;;;;;82.55;79.35;;;1.20;96.30;;;;;;5053951;28;20057;-80
2023/01/16 07:43:45;;;;;;;83.60;80.40;;;1.20;96.20;;;;;;5052210;28;20060;-79
2023/01/16 07:46:10;;;;;;;83.53;80.32;;;1.10;96.20;;;;;;5056483;28;20033;-80
2023/01/16 07:48:36;;;;;;;82.53;79.32;;;1.10;96.20;;;;;;5055870;28;20079;-80
2023/01/16 07:51:02;;;;;;;80.93;77.82;;;1.10;96.20;;;;;;5056560;28;20041;-80
2023/01/16 07:53:29;;;;;;;85.57;82.28;;;1.10;96.20;;;;;;5057145;28;20036;-80
2023/01/16 07:56:00;;;;;;;79.13;76.03;;;1.10;96.20;;;;;;5055969;28;20477;-80
2023/01/16 07:58:27;;;;;;;82.43;79.25;;;1.00;96.20;;;;;;5050749;28;20052;-80
2023/01/16 08:00:53;;;;;;;82.38;79.18;;;1.00;96.20;;;;;;5035219;28;20026;-80
2023/01/16 08:03:20;;;;;;;85.85;82.55;;;1.00;96.20;;;;;;5055843;28;20025;-79
2023/01/16 08:05:46;;;;;;;81.35;78.25;;;1.00;96.20;;;;;;5054206;28;20029;-80
2023/01/16 08:08:12;;;;;;;81.00;77.90;;;1.00;96.20;;;;;;5053605;28;20394;-80
2023/01/16 08:10:39;;;;;;;81.03;77.93;;;1.00;96.20;;;;;;5036674;28;20037;-79
2023/01/16 08:13:05;;;;;;;;;;;1.00;96.20;;;;;;5056281;28;20041;-81
2023/01/16 08:15:30;;;;;;;84.88;81.57;;;0.90;96.20;;;;;;5057388;28;19920;-80
2023/01/16 08:17:56;;;;;;;83.05;79.85;;;0.90;96.20;;;;;;5058003;28;20440;-81
2023/01/16 08:20:22;;;;;;;80.88;77.78;;;0.90;96.20;;;;;;5041239;28;20029;-80
2023/01/16 08:22:52;;;;;;;;;;;0.90;96.20;;;;;;5055609;28;20101;-80
2023/01/16 08:25:22;;;;;;;83.47;80.28;;;0.80;96.20;;;;;;5064007;28;19909;-80
2023/01/16 08:27:48;;;;;;;82.40;79.30;;;0.80;96.20;;;;;;5057636;28;20043;-80
2023/01/16 08:30:15;;;;;;;81.53;78.43;;;0.90;96.20;;;;;;5052865;28;20025;-80
2023/01/16 08:32:41;;;;;;;80.15;77.10;;;0.80;96.20;;;;;;5055696;28;20032;-79
2023/01/16 08:35:08;;;;;;;79.00;76.03;;;0.80;96.20;;;;;;5059710;28;20021;-80
2023/01/16 08:37:34;;;;;;;80.53;77.43;;;0.90;96.30;;;;;;5058502;28;20104;-79
2023/01/16 08:40:00;;;;;;;80.47;77.38;;;0.80;96.20;;;;;;5039291;28;20445;-80
2023/01/16 08:53:25;;;;;;;79.78;76.68;;;0.90;96.30;;;;;;5052093;28;20048;-78
2023/01/16 08:55:50;;;;;;;76.40;73.43;;;0.90;96.30;;;;;;5053580;28;20024;-79
2023/01/16 08:58:20;;;;;;;79.95;76.93;;;0.90;96.30;;;;;;5052816;28;20064;-79
2023/01/16 09:00:46;;;;;;;76.10;73.20;;;1.00;96.30;;;;;;5051769;28;20040;-78
2023/01/16 09:03:12;;;;;;;72.80;70.00;;;1.00;96.30;;;;;;5051439;28;20033;-79
2023/01/16 09:05:37;;;;;;;72.43;69.63;;;1.00;96.30;;;;;;5051144;28;20046;-79
2023/01/16 09:08:03;;;;;;;76.25;73.35;;;1.10;96.40;;;;;;5051383;28;20032;-79
2023/01/16 09:10:30;;;;;;;74.70;71.80;;;1.10;96.30;;;;;;5049872;28;20038;-78
2023/01/16 09:15:40;;;;;;;71.72;68.93;;;1.20;96.40;;;;;;5049931;28;20390;-80
2023/01/16 09:18:06;;;;;;;54.78;52.67;;;1.20;96.60;;;;;;5051473;28;20022;-80
2023/01/16 09:20:32;;;;;;;33.80;32.50;;;1.60;97.40;;;;;;5050916;28;20037;-79
2023/01/16 09:23:00;;;;;;;23.83;22.92;;;2.20;98.30;;;;;;5048940;28;20117;-80
2023/01/16 09:25:26;;;;;;;18.58;17.77;;;3.10;98.70;;;;;;5050585;28;20025;-80
2023/01/16 09:27:52;;;;;;;15.35;14.68;;;3.90;98.80;;;;;;5050900;28;20088;-80
2023/01/16 09:30:18;;;;;;;12.80;12.20;;;4.60;98.70;;;;;;5051326;28;20052;-79
2023/01/16 09:32:45;;;;;;;11.77;11.27;;;5.20;98.40;;;;;;5035881;28;20054;-80
2023/01/16 09:35:11;;;;;;;11.35;10.85;;;5.60;97.90;;;;;;5055607;28;20524;-80
2023/01/16 09:37:37;;;;;;;;;;;5.60;97.30;;;;;;5050907;28;20029;-81
2023/01/16 09:40:03;;;;;;;11.82;11.32;;;5.50;97.00;;;;;;5051273;28;19916;-80
2023/01/16 09:45:23;;;;;;;10.68;10.18;;;5.10;96.90;;;;;;5053217;28;20508;-77
2023/01/16 09:47:55;;;;;;;6.93;6.53;;;5.00;97.10;;;;;;5053341;28;20025;-79
2023/01/16 09:50:30;;;;;;;6.50;6.10;;;5.10;97.70;;;;;;5052614;28;20028;-79
2023/01/16 09:58:37;;;;;;;4.60;4.30;;;6.00;97.90;;;;;;5054076;28;20052;-79
2023/01/16 10:01:04;;;;;;;2.60;2.40;;;6.20;97.80;;;;;;5050284;28;20566;-79
2023/01/16 10:03:31;;;;;;;1.80;1.70;;;6.60;98.00;;;;;;5053849;28;20036;-80
2023/01/16 10:06:00;;;;;;;;;;;7.10;98.40;;;;;;5053823;28;20500;-79
2023/01/16 10:08:35;;;;;;;0.40;0.40;;;7.80;98.60;;;;;;5051723;28;20502;-81
2023/01/16 10:11:13;;;;;;;0.30;0.30;;;8.50;98.50;;;;;;5049721;28;20036;-81
2023/01/16 10:13:39;;;;;;;0.20;0.20;;;9.10;98.40;;;;;;5050453;28;20182;-81
2023/01/16 10:16:24;;;;;;;0.20;0.20;;;9.60;98.10;;;;;;5049737;28;20161;-81
2023/01/16 10:18:58;;;;;;;0.10;0.10;;;10.20;98.20;;;;;;5049387;28;20029;-82
2023/01/16 10:21:27;;;;;;;0.10;0.10;;;10.70;98.30;;;;;;5051294;28;20036;-82
2023/01/16 10:23:58;;;;;;;0.10;0.10;;;11.20;98.30;;;;;;5050161;28;20635;-81
2023/01/16 10:26:30;;;;;;;0.00;0.00;;;11.70;98.30;;;;;;5047964;28;20523;-81
2023/01/16 10:29:00;;;;;;;0.00;0.00;;;12.00;98.30;;;;;;5048167;28;20033;-82
2023/01/16 10:31:43;;;;;;;0.00;0.00;;;12.40;98.30;;;;;;5050045;28;20054;-82
2023/01/16 10:34:23;;;;;;;0.00;0.00;;;12.60;97.80;;;;;;5034183;28;20018;-82
2023/01/16 10:36:56;;;;;;;0.00;0.00;;;12.80;97.80;;;;;;5036982;28;20498;-82
2023/01/16 10:39:28;;;;;;;0.00;0.00;;;13.10;98.10;;;;;;5029627;28;20466;-82
2023/01/16 10:50:56;;;;;;;0.00;0.00;;;14.30;98.20;;;;;;5030619;28;20080;-82
2023/01/16 10:53:22;;;;;;;0.00;0.00;;;14.40;98.00;;;;;;5029576;28;20120;-83
2023/01/16 10:55:51;;;;;;;0.00;0.00;;;14.60;98.20;;;;;;5014927;28;20158;-82
2023/01/16 10:58:35;;;;;;;0.00;0.00;;;14.80;98.30;;;;;;5049392;28;20635;-81
2023/01/16 11:01:01;;;;;;;0.00;0.00;;;14.90;98.20;;;;;;5044801;28;20025;-81
2023/01/16 11:03:43;;;;;;;0.00;0.00;;;15.00;98.00;;;;;;5045660;28;20167;-81
2023/01/16 11:06:19;;;;;;;0.00;0.00;;;15.00;97.70;;;;;;5048048;28;20799;-80
2023/01/16 11:08:48;;;;;;;0.00;0.00;;;14.90;97.70;;;;;;5035521;28;20104;-71
2023/01/16 11:20:24;;;;;;;0.00;0.00;;;15.20;98.10;;;;;;5058309;28;20039;-76
2023/01/16 11:22:57;;;;;;;0.00;0.00;;;15.30;98.20;;;;;;5053146;28;20043;-81
2023/01/16 11:25:24;;;;;;;0.00;0.00;;;15.30;98.00;;;;;;5037254;28;20390;-81
2023/01/16 11:27:51;;;;;;;0.00;0.00;;;15.30;98.10;;;;;;5029806;28;20079;-76
2023/01/16 11:30:27;;;;;;;0.00;0.00;;;15.30;98.00;;;;;;5034423;28;20083;-75
2023/01/16 11:32:54;;;;;;;0.00;0.00;;;15.40;98.10;;;;;;5043496;28;20021;-78
2023/01/16 11:35:25;;;;;;;0.00;0.00;;;15.40;98.20;;;;;;5052018;28;20073;-77
2023/01/16 11:37:52;;;;;;;0.00;0.00;;;15.40;98.20;;;;;;5053274;28;20021;-75
2023/01/16 11:40:24;;;;;;;0.00;0.00;;;15.40;98.30;;;;;;5047597;28;20335;-78
2023/01/16 11:46:03;;;;;;;0.00;0.00;;;15.00;98.10;;;;;;5050871;28;20032;-77
2023/01/16 11:48:48;;;;;;;0.00;0.00;;;15.00;98.50;;;;;;5043577;28;20093;-77
2023/01/16 11:51:21;;;;;;;0.00;0.00;;;15.10;98.60;;;;;;5034654;28;20505;-78
2023/01/16 11:53:48;;;;;;;0.00;0.00;;;15.10;98.50;;;;;;5037007;28;20026;-77
2023/01/16 11:56:37;;;;;;;0.00;0.00;;;15.10;98.40;;;;;;5053992;28;20025;-77
2023/01/16 11:59:31;;;;;;;0.00;0.00;;;14.90;98.40;;;;;;5036051;28;20053;-76
2023/01/16 12:02:18;;;;;;;0.00;0.00;;;14.80;98.60;;;;;;5036459;28;20081;-77
2023/01/16 12:08:22;;;;;;;0.00;0.00;;;15.00;99.30;;;;;;5047948;28;20072;-79
2023/01/16 12:11:00;;;;;;;0.00;0.00;;;15.10;99.00;;;;;;5049299;28;20045;-80
2023/01/16 12:14:17;;;;;;;0.00;0.00;;;15.00;98.90;;;;;;5046445;28;20002;-80
2023/01/16 12:17:21;;;;;;;0.00;0.00;;;15.10;99.30;;;;;;5058445;28;20025;-80
2023/01/16 12:20:12;;;;;;;0.00;0.00;;;15.00;98.80;;;;;;5047085;28;20026;-79
2023/01/16 12:22:52;;;;;;;0.00;0.00;;;14.60;98.50;;;;;;5041259;28;20086;-78
2023/01/16 12:25:50;;;;;;;0.00;0.00;;;14.20;98.30;;;;;;5045160;28;20103;-78
2023/01/16 12:28:21;;;;;;;0.00;0.00;;;13.60;98.30;;;;;;5046808;28;20065;-79
2023/01/16 12:31:15;;;;;;;0.00;0.00;;;13.30;98.40;;;;;;5045892;28;20440;-80
2023/01/16 12:33:56;;;;;;;0.00;0.00;;;13.00;98.50;;;;;;5046516;28;20762;-79
2023/01/16 12:36:46;;;;;;;0.00;0.00;;;12.70;98.30;;;;;;5060982;28;20488;-70
2023/01/16 12:39:52;;;;;;;0.00;0.00;;;12.70;98.90;;;;;;5046281;28;20048;-80
2023/01/16 12:45:38;;;;;;;;;;;12.70;99.20;;;;;;5050276;28;20041;-75
2023/01/16 12:48:15;;;;;;;0.00;0.00;;;12.70;98.70;;;;;;5050984;28;19961;-74
2023/01/16 12:50:52;;;;;;;;;;;12.10;97.40;;;;;;5043153;28;20032;-81
2023/01/16 12:53:36;;;;;;;0.00;0.00;;;11.50;96.60;;;;;;5036492;28;19915;-81
2023/01/16 12:56:37;;;;;;;0.00;0.00;;;10.70;96.30;;;;;;5038919;28;20442;-78
2023/01/16 12:59:38;;;;;;;0.00;0.00;;;10.00;96.40;;;;;;4998766;28;20062;-77
2023/01/16 13:02:13;;;;;;;0.00;0.00;;;9.20;96.20;;;;;;5032079;28;20037;-81
2023/01/16 13:04:46;;;;;;;0.00;0.00;;;8.70;96.50;;;;;;5054640;28;20029;-80
2023/01/16 13:07:16;;;;;;;0.00;0.00;;;8.40;96.90;;;;;;5038435;28;20104;-78
2023/01/16 13:13:20;;;;;;;0.00;0.00;;;8.10;97.10;;;;;;5052766;28;20025;-81
2023/01/16 13:15:35;;;;;;;0.00;0.00;;;7.70;97.10;;;;;;5034525;28;20041;-80
2023/01/16 13:18:08;;;;;;;0.00;0.00;;;7.40;97.00;;;;;;5045244;28;20108;-79
2023/01/16 13:20:34;;;;;;;0.00;0.00;;;7.20;96.90;;;;;;5040404;28;20013;-77
2023/01/16 13:23:02;;;;;;;;;;;7.00;96.90;;;;;;5046209;28;20057;-77
2023/01/16 13:25:34;;;;;;;;;;;6.90;97.00;;;;;;5044041;28;19987;-74
2023/01/16 13:28:32;;;;;;;0.00;0.00;;;6.70;97.10;;;;;;5044867;28;19991;-76
2023/01/16 13:31:04;;;;;;;0.00;0.00;;;6.70;97.20;;;;;;5041900;28;20033;-79
2023/01/16 13:33:33;;;;;;;0.00;0.00;;;6.70;97.30;;;;;;5051988;28;20393;-78
2023/01/16 13:36:05;;;;;;;0.25;0.25;;;6.70;97.30;;;;;;5052869;28;20094;-78
2023/01/16 13:38:59;;;;;;;0.00;0.00;;;6.80;97.30;;;;;;5042077;28;20025;-78
2023/01/16 13:41:33;;;;;;;0.00;0.00;;;6.80;97.20;;;;;;5053967;28;20027;-84
2023/01/16 13:47:08;;;;;;;0.00;0.00;;;6.80;97.00;;;;;;5054535;28;20116;-83
2023/01/16 13:49:34;;;;;;;0.00;0.00;;;6.80;97.10;;;;;;5054306;28;20095;-83
2023/01/16 13:52:03;;;;;;;0.00;0.00;;;6.80;97.00;;;;;;5034149;28;20043;-79
2023/01/16 13:54:42;;;;;;;0.00;0.00;;;6.80;96.90;;;;;;5033424;28;20504;-78
2023/01/16 13:57:20;;;;;;;0.00;0.00;;;6.70;96.90;;;;;;5039537;28;20043;-77
2023/01/16 13:59:52;;;;;;;0.00;0.00;;;6.70;97.00;;;;;;5049194;28;20032;-79
2023/01/16 14:02:24;;;;;;;0.00;0.00;;;6.70;97.00;;;;;;5055588;28;20024;-80
2023/01/16 14:05:20;;;;;;;0.00;0.00;;;6.70;97.00;;;;;;5056912;28;20362;-79
2023/01/16 14:11:04;;;;;;;0.00;0.00;;;6.80;97.00;;;;;;5039111;28;20047;-79
2023/01/16 14:13:38;;;;;;;0.00;0.00;;;6.80;97.00;;;;;;5036995;28;20021;-82
2023/01/16 14:16:33;;;;;;;0.28;0.25;;;6.80;97.00;;;;;;5014367;28;20113;-82